createdAt,value
2022-12-06T00:01:44.256Z,21.70
2022-12-06T00:04:14.922Z,25.73
2022-12-06T00:06:45.406Z,21.63
2022-12-06T00:09:21.501Z,25.48
2022-12-06T00:11:49.572Z,23.83
2022-12-06T00:14:17.757Z,25.55
2022-12-06T00:16:45.405Z,24.63
2022-12-06T00:19:14.719Z,22.42
2022-12-06T00:21:43.080Z,22.02
2022-12-06T00:24:19.426Z,21.73
2022-12-06T00:26:49.281Z,27.17
2022-12-06T00:29:23.163Z,24.25
2022-12-06T00:31:51.265Z,26.02
2022-12-06T00:34:18.955Z,26.25
2022-12-06T00:36:46.456Z,30.20
2022-12-06T00:39:16.666Z,27.25
2022-12-06T00:41:44.579Z,29.30
2022-12-06T00:44:13.089Z,29.27
2022-12-06T00:46:40.596Z,27.30
2022-12-06T00:49:09.303Z,29.48
2022-12-06T00:51:37.640Z,28.70
2022-12-06T00:54:06.173Z,27.73
2022-12-06T00:56:36.232Z,29.15
2022-12-06T00:59:04.685Z,29.83
2022-12-06T01:01:33.848Z,33.40
2022-12-06T01:04:03.567Z,30.15
2022-12-06T01:06:33.238Z,28.45
2022-12-06T01:09:03.838Z,30.40
2022-12-06T01:11:31.467Z,29.67
2022-12-06T01:13:58.928Z,27.60
2022-12-06T01:16:29.159Z,30.90
2022-12-06T01:18:59.975Z,27.88
2022-12-06T01:21:28.470Z,29.73
2022-12-06T01:23:56.539Z,29.75
2022-12-06T01:26:30.005Z,30.27
2022-12-06T01:28:59.043Z,34.85
2022-12-06T01:31:32.110Z,31.77
2022-12-06T01:34:01.588Z,33.47
2022-12-06T01:36:29.047Z,30.48
2022-12-06T01:38:58.418Z,30.83
2022-12-06T01:41:27.386Z,29.13
2022-12-06T01:43:56.241Z,33.22
2022-12-06T01:46:45.424Z,32.85
2022-12-06T01:49:12.770Z,30.80
2022-12-06T01:51:45.920Z,31.67
2022-12-06T01:54:16.115Z,34.17
2022-12-06T01:56:44.784Z,31.73
2022-12-06T01:59:12.760Z,32.75
2022-12-06T02:01:40.869Z,31.25
2022-12-06T02:04:09.124Z,32.95
2022-12-06T02:06:38.217Z,30.48
2022-12-06T02:09:07.892Z,31.83
2022-12-06T02:11:35.963Z,32.40
2022-12-06T02:14:06.224Z,33.35
2022-12-06T02:16:53.156Z,31.08
2022-12-06T02:19:51.321Z,30.55
2022-12-06T02:24:54.706Z,31.63
2022-12-06T02:27:30.923Z,33.25
2022-12-06T02:30:28.085Z,30.98
2022-12-06T02:33:26.248Z,33.73
2022-12-06T02:36:00.769Z,30.70
2022-12-06T02:38:31.381Z,29.50
2022-12-06T02:41:04.358Z,31.13
2022-12-06T02:43:40.657Z,29.70
2022-12-06T02:46:11.349Z,29.30
2022-12-06T02:48:40.261Z,29.95
2022-12-06T02:51:12.769Z,31.25
2022-12-06T02:53:45.818Z,31.45
2022-12-06T02:56:16.576Z,29.58
2022-12-06T02:58:44.363Z,29.25
2022-12-06T03:01:26.648Z,29.70
2022-12-06T03:04:47.436Z,29.85
2022-12-06T03:07:20.844Z,27.45
2022-12-06T03:10:15.419Z,28.05
2022-12-06T03:13:06.336Z,28.17
2022-12-06T03:15:34.288Z,30.70
2022-12-06T03:18:32.003Z,29.60
2022-12-06T03:21:11.165Z,27.45
2022-12-06T03:23:45.393Z,25.55
2022-12-06T03:26:16.948Z,27.27
2022-12-06T03:28:48.058Z,24.95
2022-12-06T03:31:16.355Z,26.65
2022-12-06T03:33:49.683Z,25.95
2022-12-06T03:36:18.509Z,26.45
2022-12-06T03:39:07.549Z,24.85
2022-12-06T03:41:43.429Z,26.35
2022-12-06T03:44:11.127Z,24.70
2022-12-06T03:46:44.413Z,23.02
2022-12-06T03:49:21.857Z,24.08
2022-12-06T03:51:49.485Z,24.15
2022-12-06T03:54:17.259Z,23.20
2022-12-06T03:56:44.709Z,20.95
2022-12-06T03:59:12.347Z,21.75
2022-12-06T04:01:40.147Z,22.45
2022-12-06T04:04:07.698Z,23.40
2022-12-06T04:06:35.179Z,22.17
2022-12-06T04:09:21.450Z,23.90
2022-12-06T04:11:48.883Z,23.20
2022-12-06T04:14:16.518Z,22.48
2022-12-06T04:17:02.911Z,21.95
2022-12-06T04:19:30.466Z,20.80
2022-12-06T04:22:16.701Z,21.73
2022-12-06T04:24:44.165Z,19.55
2022-12-06T04:27:30.209Z,19.63
2022-12-06T04:30:16.326Z,18.63
2022-12-06T04:33:02.641Z,19.92
2022-12-06T04:35:48.755Z,21.35
2022-12-06T04:38:35.006Z,20.33
2022-12-06T04:41:02.424Z,17.70
2022-12-06T04:43:42.045Z,19.58
2022-12-06T04:46:14.447Z,17.55
2022-12-06T04:48:42.374Z,20.00
2022-12-06T04:51:12.992Z,17.52
2022-12-06T04:53:40.537Z,20.10
2022-12-06T04:56:08.604Z,18.58
2022-12-06T04:58:36.049Z,18.58
2022-12-06T05:01:03.665Z,17.42
2022-12-06T05:03:31.316Z,19.17
2022-12-06T05:05:58.817Z,18.70
2022-12-06T05:08:26.316Z,17.48
2022-12-06T05:10:53.765Z,17.80
2022-12-06T05:13:21.403Z,16.80
2022-12-06T05:15:50.708Z,16.02
2022-12-06T05:18:18.511Z,17.60
2022-12-06T05:20:46.096Z,14.85
2022-12-06T05:23:13.911Z,14.02
2022-12-06T05:25:41.409Z,17.15
2022-12-06T05:28:09.152Z,16.13
2022-12-06T05:30:36.778Z,16.10
2022-12-06T05:33:04.290Z,15.23
2022-12-06T05:35:31.755Z,16.25
2022-12-06T05:37:59.220Z,13.85
2022-12-06T05:40:26.791Z,14.23
2022-12-06T05:42:54.275Z,13.32
2022-12-06T05:45:21.937Z,14.95
2022-12-06T05:47:49.390Z,13.90
2022-12-06T05:50:16.927Z,14.32
2022-12-06T05:52:45.096Z,18.27
2022-12-06T05:55:12.510Z,12.43
2022-12-06T05:57:43.956Z,15.38
2022-12-06T06:00:15.500Z,11.80
2022-12-06T06:02:43.588Z,13.70
2022-12-06T06:05:11.107Z,12.88
2022-12-06T06:07:38.760Z,13.00
2022-12-06T06:10:07.336Z,11.80
2022-12-06T06:12:34.726Z,12.43
2022-12-06T06:15:05.114Z,12.35
2022-12-06T06:17:35.734Z,12.45
2022-12-06T06:20:07.789Z,11.60
2022-12-06T06:22:37.184Z,12.52
2022-12-06T06:25:06.019Z,11.65
2022-12-06T06:27:36.957Z,12.45
2022-12-06T06:30:06.544Z,15.88
2022-12-06T06:32:34.201Z,13.35
2022-12-06T06:35:01.907Z,13.55
2022-12-06T06:37:29.465Z,12.05
2022-12-06T06:39:57.050Z,11.30
2022-12-06T06:42:24.524Z,12.15
2022-12-06T06:44:54.611Z,12.13
2022-12-06T06:47:23.377Z,12.27
2022-12-06T06:49:50.954Z,10.77
2022-12-06T06:52:18.405Z,10.60
2022-12-06T06:54:45.818Z,12.75
2022-12-06T06:57:17.587Z,10.27
2022-12-06T06:59:45.932Z,10.55
2022-12-06T07:02:15.032Z,12.45
2022-12-06T07:04:42.895Z,10.40
2022-12-06T07:07:15.307Z,9.48
2022-12-06T07:09:47.066Z,11.23
2022-12-06T07:12:15.341Z,10.68
2022-12-06T07:14:42.789Z,10.10
2022-12-06T07:17:10.300Z,10.80
2022-12-06T07:19:37.783Z,9.10
2022-12-06T07:22:05.240Z,10.07
2022-12-06T07:24:36.951Z,11.60
2022-12-06T07:27:07.399Z,9.52
2022-12-06T07:29:34.851Z,8.30
2022-12-06T07:32:02.346Z,10.48
2022-12-06T07:34:30.111Z,9.75
2022-12-06T07:36:57.551Z,8.27
2022-12-06T07:39:25.117Z,10.75
2022-12-06T07:42:11.110Z,9.82
2022-12-06T07:45:02.290Z,9.95
2022-12-06T07:47:36.954Z,9.52
2022-12-06T07:50:06.467Z,10.57
2022-12-06T07:52:36.154Z,8.88
2022-12-06T07:55:05.556Z,8.43
2022-12-06T07:57:38.579Z,11.60
2022-12-06T08:00:11.239Z,8.57
2022-12-06T08:02:42.169Z,9.93
2022-12-06T08:05:10.221Z,10.32
2022-12-06T08:07:38.205Z,9.90
2022-12-06T08:10:06.823Z,9.93
2022-12-06T08:12:34.359Z,11.60
2022-12-06T08:15:01.882Z,8.63
2022-12-06T08:17:30.207Z,9.75
2022-12-06T08:19:58.151Z,10.63
2022-12-06T08:22:25.857Z,8.52
2022-12-06T08:24:53.360Z,9.65
2022-12-06T08:27:20.824Z,9.93
2022-12-06T08:29:48.231Z,9.82
2022-12-06T08:32:15.658Z,9.43
2022-12-06T08:34:43.766Z,10.60
2022-12-06T08:37:12.217Z,9.52
2022-12-06T08:39:39.642Z,8.15
2022-12-06T08:42:08.167Z,8.45
2022-12-06T08:44:36.480Z,9.00
2022-12-06T08:47:04.241Z,8.73
2022-12-06T08:49:31.760Z,9.70
2022-12-06T08:51:59.899Z,10.38
2022-12-06T08:54:28.048Z,9.43
2022-12-06T08:56:56.158Z,10.85
2022-12-06T08:59:24.177Z,9.48
2022-12-06T09:01:51.963Z,9.90
2022-12-06T09:04:19.743Z,9.57
2022-12-06T09:06:47.555Z,10.25
2022-12-06T09:09:17.210Z,10.52
2022-12-06T09:11:45.903Z,10.32
2022-12-06T09:14:20.998Z,10.10
2022-12-06T09:16:50.231Z,9.85
2022-12-06T09:19:18.396Z,9.60
2022-12-06T09:21:46.584Z,11.13
2022-12-06T09:24:16.426Z,11.57
2022-12-06T09:26:43.915Z,10.88
2022-12-06T09:29:11.721Z,9.57
2022-12-06T09:31:40.377Z,10.95
2022-12-06T09:34:09.213Z,10.23
2022-12-06T09:36:46.736Z,11.88
2022-12-06T09:39:18.849Z,11.50
2022-12-06T09:42:23.549Z,11.48
2022-12-06T09:44:59.627Z,10.70
2022-12-06T09:47:54.813Z,12.02
2022-12-06T09:50:52.362Z,10.98
2022-12-06T09:53:34.962Z,11.27
2022-12-06T09:56:36.229Z,11.65
2022-12-06T09:59:34.568Z,12.13
2022-12-06T10:02:05.167Z,13.07
2022-12-06T10:04:50.949Z,11.50
2022-12-06T10:08:11.492Z,11.05
2022-12-06T10:10:57.997Z,11.60
2022-12-06T10:13:47.446Z,12.32
2022-12-06T10:16:39.782Z,10.70
2022-12-06T10:19:18.826Z,9.23
2022-12-06T10:22:11.080Z,10.43
2022-12-06T10:25:07.626Z,10.90
2022-12-06T10:27:37.391Z,11.43
2022-12-06T10:30:11.076Z,11.70
2022-12-06T10:32:53.651Z,9.38
2022-12-06T10:35:43.436Z,12.48
2022-12-06T10:38:37.399Z,9.77
2022-12-06T10:41:22.477Z,10.98
2022-12-06T10:43:56.216Z,10.75
2022-12-06T10:47:05.145Z,9.60
2022-12-06T10:50:00.550Z,10.43
2022-12-06T10:52:49.306Z,11.70
2022-12-06T10:55:26.836Z,10.95
2022-12-06T10:58:31.776Z,9.68
2022-12-06T11:01:08.982Z,10.52
2022-12-06T11:03:58.015Z,10.93
2022-12-06T11:06:31.509Z,9.65
2022-12-06T11:09:25.158Z,14.05
2022-12-06T11:11:52.882Z,14.48
2022-12-06T11:14:27.911Z,12.38
2022-12-06T11:16:57.520Z,14.88
2022-12-06T11:19:36.532Z,14.75
2022-12-06T11:22:25.359Z,14.57
2022-12-06T11:25:03.057Z,12.75
2022-12-06T11:27:36.581Z,12.57
2022-12-06T11:30:19.567Z,12.32
2022-12-06T11:32:52.736Z,13.50
2022-12-06T11:35:25.380Z,12.35
2022-12-06T11:37:56.549Z,11.10
2022-12-06T11:40:31.309Z,13.85
2022-12-06T11:43:02.686Z,11.02
2022-12-06T11:45:33.462Z,12.93
2022-12-06T11:48:08.224Z,11.30
2022-12-06T11:50:36.729Z,11.43
2022-12-06T11:53:12.061Z,11.95
2022-12-06T11:55:50.936Z,10.07
2022-12-06T11:58:37.788Z,9.60
2022-12-06T12:01:11.990Z,9.13
2022-12-06T12:03:41.820Z,10.50
2022-12-06T12:06:29.215Z,9.73
2022-12-06T12:09:17.203Z,9.98
2022-12-06T12:11:55.288Z,9.57
2022-12-06T12:14:30.832Z,9.15
2022-12-06T12:17:03.379Z,8.98
2022-12-06T12:19:35.717Z,8.52
2022-12-06T12:22:24.097Z,8.57
2022-12-06T12:25:19.749Z,8.77
2022-12-06T12:27:49.914Z,9.15
2022-12-06T12:30:20.551Z,9.60
2022-12-06T12:32:51.015Z,8.45
2022-12-06T12:35:21.513Z,7.13
2022-12-06T12:37:52.757Z,8.07
2022-12-06T12:40:26.526Z,9.70
2022-12-06T12:43:05.332Z,7.55
2022-12-06T12:45:33.072Z,10.00
2022-12-06T12:48:19.550Z,7.63
2022-12-06T12:50:58.533Z,8.10
2022-12-06T12:53:41.157Z,8.18
2022-12-06T12:56:14.671Z,7.25
2022-12-06T12:58:43.426Z,6.47
2022-12-06T13:01:27.380Z,6.57
2022-12-06T13:03:59.476Z,7.68
2022-12-06T13:06:45.721Z,6.07
2022-12-06T13:09:24.264Z,6.28
2022-12-06T13:11:57.192Z,8.15
2022-12-06T13:14:26.636Z,5.45
2022-12-06T13:17:00.224Z,6.70
2022-12-06T13:19:39.094Z,6.78
2022-12-06T13:22:14.153Z,8.93
2022-12-06T13:24:44.867Z,5.50
2022-12-06T13:27:19.233Z,6.22
2022-12-06T13:30:13.780Z,6.15
2022-12-06T13:33:00.876Z,5.63
2022-12-06T13:35:32.553Z,6.40
2022-12-06T13:38:02.803Z,5.63
2022-12-06T13:40:33.077Z,5.55
2022-12-06T13:43:02.808Z,6.88
2022-12-06T13:46:15.115Z,5.60
2022-12-06T13:49:05.380Z,6.00
2022-12-06T13:51:32.844Z,6.32
2022-12-06T13:54:30.255Z,4.95
2022-12-06T13:56:59.752Z,6.95
2022-12-06T13:59:38.122Z,4.75
2022-12-06T14:02:43.542Z,5.18
2022-12-06T14:05:48.618Z,4.47
2022-12-06T14:08:16.218Z,4.00
2022-12-06T14:10:43.918Z,4.90
2022-12-06T14:13:20.542Z,4.70
2022-12-06T14:15:52.382Z,4.82
2022-12-06T14:18:23.760Z,4.43
2022-12-06T14:20:53.946Z,5.68
2022-12-06T14:23:38.514Z,5.68
2022-12-06T14:26:23.199Z,4.43
2022-12-06T14:28:53.386Z,4.47
2022-12-06T14:31:30.247Z,5.70
2022-12-06T14:39:11.138Z,4.97
2022-12-06T14:41:58.294Z,4.72
2022-12-06T14:44:32.374Z,4.78
2022-12-06T14:47:00.473Z,5.50
2022-12-06T14:49:47.582Z,4.50
2022-12-06T14:52:20.681Z,4.50
2022-12-06T14:54:48.661Z,3.45
2022-12-06T14:57:26.339Z,3.70
2022-12-06T15:00:15.179Z,4.03
2022-12-06T15:03:08.434Z,4.53
2022-12-06T15:05:39.377Z,3.38
2022-12-06T15:08:25.536Z,4.32
2022-12-06T15:11:39.037Z,4.47
2022-12-06T15:14:19.124Z,3.78
2022-12-06T15:16:58.062Z,4.65
2022-12-06T15:19:25.978Z,4.45
2022-12-06T15:21:54.117Z,5.40
2022-12-06T15:24:24.292Z,4.85
2022-12-06T15:26:52.316Z,4.57
2022-12-06T15:29:20.479Z,5.95
2022-12-06T15:31:54.334Z,5.35
2022-12-06T15:34:32.006Z,8.70
2022-12-06T15:37:38.164Z,6.72
2022-12-06T15:39:49.046Z,6.43
2022-12-06T15:42:18.583Z,6.03
2022-12-06T15:44:49.593Z,5.40
2022-12-06T15:47:19.702Z,8.80
2022-12-06T15:49:51.036Z,8.20
2022-12-06T15:52:23.581Z,7.00
2022-12-06T15:54:51.429Z,8.77
2022-12-06T15:57:18.856Z,8.63
2022-12-06T15:59:46.340Z,6.55
2022-12-06T16:02:16.288Z,7.20
2022-12-06T16:04:44.724Z,8.30
2022-12-06T16:07:13.455Z,8.40
2022-12-06T16:09:40.919Z,7.82
2022-12-06T16:12:09.511Z,9.05
2022-12-06T16:14:37.048Z,9.50
2022-12-06T16:17:04.445Z,10.38
2022-12-06T16:19:50.652Z,8.52
2022-12-06T16:22:18.163Z,9.60
2022-12-06T16:24:52.383Z,9.25
2022-12-06T16:27:21.341Z,11.35
2022-12-06T16:29:48.856Z,10.57
2022-12-06T16:32:16.250Z,12.25
2022-12-06T16:34:43.736Z,13.02
2022-12-06T16:37:11.895Z,13.15
2022-12-06T16:39:39.519Z,13.55
2022-12-06T16:42:06.958Z,11.82
2022-12-06T16:44:50.685Z,11.27
2022-12-06T16:47:18.149Z,12.38
2022-12-06T16:49:47.369Z,14.32
2022-12-06T16:52:16.722Z,13.25
2022-12-06T16:54:44.336Z,12.88
2022-12-06T16:57:12.961Z,12.52
2022-12-06T16:59:42.222Z,12.20
2022-12-06T17:02:26.559Z,12.77
2022-12-06T17:04:55.183Z,12.30
2022-12-06T17:07:23.043Z,14.63
2022-12-06T17:09:50.529Z,16.88
2022-12-06T17:12:18.582Z,16.40
2022-12-06T17:14:46.250Z,16.05
2022-12-06T17:17:20.200Z,16.52
2022-12-06T17:19:48.645Z,17.42
2022-12-06T17:22:17.240Z,17.55
2022-12-06T17:24:45.463Z,20.38
2022-12-06T17:27:14.610Z,18.65
2022-12-06T17:29:44.260Z,19.73
2022-12-06T17:32:12.697Z,19.33
2022-12-06T17:34:40.182Z,20.23
2022-12-06T17:37:07.907Z,22.55
2022-12-06T17:39:35.693Z,20.05
2022-12-06T17:42:22.019Z,19.05
2022-12-06T17:44:52.578Z,21.10
2022-12-06T17:47:20.475Z,21.80
2022-12-06T17:49:47.957Z,20.42
2022-12-06T17:52:15.477Z,19.45
2022-12-06T17:54:43.112Z,19.95
2022-12-06T17:57:17.217Z,21.42
2022-12-06T17:59:46.689Z,22.15
2022-12-06T18:02:18.012Z,21.80
2022-12-06T18:04:47.787Z,20.48
2022-12-06T18:07:16.891Z,21.75
2022-12-06T18:09:44.798Z,26.38
2022-12-06T18:12:14.079Z,25.25
2022-12-06T18:14:41.492Z,25.15
2022-12-06T18:17:09.546Z,23.33
2022-12-06T18:19:37.672Z,22.40
2022-12-06T18:22:05.157Z,22.98
2022-12-06T18:24:35.846Z,24.48
2022-12-06T18:27:05.785Z,22.15
2022-12-06T18:29:33.884Z,24.95
2022-12-06T18:32:01.856Z,26.55
2022-12-06T18:34:29.426Z,23.67
2022-12-06T18:36:57.285Z,24.17
2022-12-06T18:39:25.019Z,24.00
2022-12-06T18:41:54.330Z,22.42
2022-12-06T18:44:22.693Z,26.52
2022-12-06T18:46:50.752Z,23.30
2022-12-06T18:49:18.581Z,21.58
2022-12-06T18:51:46.146Z,20.88
2022-12-06T18:54:14.367Z,25.25
2022-12-06T18:56:42.467Z,21.85
2022-12-06T18:59:12.028Z,22.60
2022-12-06T19:01:41.042Z,23.60
2022-12-06T19:04:14.199Z,26.83
2022-12-06T19:06:43.435Z,25.10
2022-12-06T19:09:14.169Z,23.23
2022-12-06T19:11:44.374Z,27.60
2022-12-06T19:14:12.466Z,24.73
2022-12-06T19:16:46.034Z,24.17
2022-12-06T19:19:25.259Z,28.27
2022-12-06T19:21:54.280Z,28.23
2022-12-06T19:24:24.254Z,24.25
2022-12-06T19:26:56.319Z,25.35
2022-12-06T19:29:24.401Z,25.95
2022-12-06T19:31:51.907Z,25.00
2022-12-06T19:34:25.346Z,23.77
2022-12-06T19:36:54.353Z,25.02
2022-12-06T19:39:22.192Z,23.52
2022-12-06T19:42:08.597Z,21.02
2022-12-06T19:44:36.065Z,23.95
2022-12-06T19:47:03.684Z,22.95
2022-12-06T19:49:31.280Z,23.15
2022-12-06T19:51:58.709Z,21.95
2022-12-06T19:54:31.636Z,30.15
2022-12-06T19:57:00.799Z,26.42
2022-12-06T19:59:31.880Z,29.95
2022-12-06T20:02:00.375Z,27.58
2022-12-06T20:04:34.093Z,30.52
2022-12-06T20:07:02.362Z,26.17
2022-12-06T20:09:32.897Z,26.30
2022-12-06T20:12:04.048Z,25.27
2022-12-06T20:14:40.503Z,27.60
2022-12-06T20:17:11.243Z,23.70
2022-12-06T20:19:39.093Z,23.80
2022-12-06T20:22:06.638Z,29.92
2022-12-06T20:24:34.134Z,25.77
2022-12-06T20:27:02.182Z,28.98
2022-12-06T20:29:30.257Z,24.83
2022-12-06T20:31:59.210Z,28.77
2022-12-06T20:34:29.498Z,30.40
2022-12-06T20:36:57.574Z,29.88
2022-12-06T20:39:27.343Z,28.25
2022-12-06T20:41:54.877Z,27.70
2022-12-06T20:44:22.345Z,30.27
2022-12-06T20:46:50.389Z,26.50
2022-12-06T20:49:18.238Z,31.23
2022-12-06T20:51:51.065Z,28.00
2022-12-06T20:54:21.082Z,25.98
2022-12-06T20:56:51.697Z,29.48
2022-12-06T20:59:19.795Z,28.77
2022-12-06T21:01:47.584Z,28.20
2022-12-06T21:04:16.128Z,29.83
2022-12-06T21:06:43.605Z,26.55
2022-12-06T21:09:11.358Z,30.25
2022-12-06T21:11:39.003Z,30.30
2022-12-06T21:14:06.553Z,31.02
2022-12-06T21:16:35.384Z,29.25
2022-12-06T21:19:05.501Z,30.42
2022-12-06T21:21:36.114Z,30.38
2022-12-06T21:24:06.736Z,29.23
2022-12-06T21:26:34.476Z,31.73
2022-12-06T21:29:02.538Z,32.88
2022-12-06T21:31:32.350Z,32.20
2022-12-06T21:34:00.025Z,31.40
2022-12-06T21:36:27.896Z,36.80
2022-12-06T21:38:55.768Z,32.53
2022-12-06T21:41:23.970Z,34.55
2022-12-06T21:43:51.481Z,35.92
2022-12-06T21:46:21.813Z,35.58
2022-12-06T21:48:55.312Z,34.85
2022-12-06T21:51:24.971Z,34.83
2022-12-06T21:53:53.049Z,34.75
2022-12-06T21:56:23.876Z,35.80
2022-12-06T21:58:51.775Z,33.05
2022-12-06T22:01:22.539Z,32.38
2022-12-06T22:03:51.755Z,35.75
2022-12-06T22:06:20.006Z,33.88
2022-12-06T22:08:49.038Z,37.10
2022-12-06T22:11:19.228Z,35.80
2022-12-06T22:13:48.052Z,34.88
2022-12-06T22:16:16.757Z,38.42
2022-12-06T22:18:46.333Z,35.17
2022-12-06T22:21:22.209Z,33.42
2022-12-06T22:23:49.732Z,34.42
2022-12-06T22:26:21.955Z,35.10
2022-12-06T22:28:50.136Z,35.20
2022-12-06T22:31:20.986Z,36.20
2022-12-06T22:33:50.057Z,36.55
2022-12-06T22:36:18.544Z,35.05
2022-12-06T22:38:50.424Z,38.83
2022-12-06T22:41:18.993Z,34.97
2022-12-06T22:43:50.576Z,39.40
2022-12-06T22:46:18.421Z,43.83
2022-12-06T22:48:46.336Z,40.95
2022-12-06T22:51:17.909Z,43.83
2022-12-06T22:53:48.245Z,48.22
2022-12-06T22:56:15.824Z,46.72
2022-12-06T22:58:43.993Z,49.47
2022-12-06T23:01:19.667Z,52.20
2022-12-06T23:03:49.190Z,57.22
2022-12-06T23:06:19.937Z,54.97
2022-12-06T23:08:48.328Z,55.90
2022-12-06T23:11:18.109Z,59.40
2022-12-06T23:13:46.023Z,56.67
2022-12-06T23:16:16.223Z,60.08
2022-12-06T23:18:44.700Z,58.80
2022-12-06T23:21:22.276Z,61.88
2022-12-06T23:23:55.760Z,61.42
2022-12-06T23:26:25.623Z,62.22
2022-12-06T23:28:53.221Z,57.45
2022-12-06T23:31:29.326Z,61.28
2022-12-06T23:34:01.560Z,64.22
2022-12-06T23:36:31.107Z,63.10
2022-12-06T23:38:58.715Z,64.22
2022-12-06T23:41:29.388Z,57.60
2022-12-06T23:43:57.939Z,64.40
2022-12-06T23:46:28.104Z,61.40
2022-12-06T23:48:56.591Z,66.40
2022-12-06T23:51:27.265Z,64.55
2022-12-06T23:53:59.429Z,63.78
2022-12-06T23:56:32.971Z,58.40
2022-12-06T23:59:01.336Z,59.60
